createdAt,value
2018-04-26T00:03:08.821Z,9.15
2018-04-26T00:08:59.479Z,8.79
2018-04-26T00:14:50.186Z,9.06
2018-04-26T00:20:40.864Z,8.94
2018-04-26T00:26:31.598Z,8.81
2018-04-26T00:32:22.244Z,9.19
2018-04-26T00:38:12.991Z,8.84
2018-04-26T00:44:03.673Z,9.85
2018-04-26T00:49:54.314Z,9.47
2018-04-26T00:55:45.030Z,10.22
2018-04-26T01:01:35.713Z,10.13
2018-04-26T01:07:26.441Z,9.91
2018-04-26T01:13:17.091Z,9.52
2018-04-26T01:19:07.779Z,8.7
2018-04-26T01:24:58.444Z,9.28
2018-04-26T01:30:49.157Z,8.42
2018-04-26T01:36:39.821Z,8.42
2018-04-26T01:42:30.530Z,10.1
2018-04-26T01:48:21.230Z,9.73
2018-04-26T01:54:11.888Z,11.1
2018-04-26T02:00:02.618Z,11.39
2018-04-26T02:05:53.286Z,11.21
2018-04-26T02:11:43.977Z,10.92
2018-04-26T02:17:34.636Z,9.18
2018-04-26T02:23:25.343Z,9.2
2018-04-26T02:29:16.044Z,7.92
2018-04-26T02:35:06.689Z,8.26
2018-04-26T02:40:57.469Z,8.39
2018-04-26T02:46:48.092Z,8.49
2018-04-26T02:52:38.755Z,8.08
2018-04-26T02:58:29.458Z,7.99
2018-04-26T03:04:20.122Z,8.4
2018-04-26T03:10:10.825Z,7.91
2018-04-26T03:16:01.487Z,8.04
2018-04-26T03:21:52.189Z,8.09
2018-04-26T03:27:42.942Z,9.14
2018-04-26T03:33:33.612Z,8.74
2018-04-26T03:39:24.220Z,8.43
2018-04-26T03:45:14.961Z,8.36
2018-04-26T03:51:05.644Z,7.79
2018-04-26T03:56:56.265Z,8.72
2018-04-26T04:02:47.032Z,8.19
2018-04-26T04:08:37.642Z,8.77
2018-04-26T04:14:28.341Z,8.83
2018-04-26T04:20:19.012Z,9.64
2018-04-26T04:26:09.717Z,10.28
2018-04-26T04:32:00.379Z,8.8
2018-04-26T04:37:51.066Z,9.63
2018-04-26T04:43:41.763Z,9.22
2018-04-26T04:49:32.432Z,9.85
2018-04-26T04:55:23.124Z,9.05
2018-04-26T05:01:13.765Z,9.7
2018-04-26T05:07:04.475Z,11.14
2018-04-26T05:12:55.133Z,10.56
2018-04-26T05:18:45.838Z,10.39
2018-04-26T05:24:36.535Z,9.42
2018-04-26T05:30:27.208Z,10.52
2018-04-26T05:36:17.937Z,11.35
2018-04-26T05:42:08.528Z,11.2
2018-04-26T05:47:59.267Z,12
2018-04-26T05:53:49.939Z,13.76
2018-04-26T05:59:40.620Z,15.89
2018-04-26T06:05:31.296Z,14.89
2018-04-26T06:11:21.987Z,16.03
2018-04-26T06:17:12.729Z,19.98
2018-04-26T06:23:03.321Z,17.06
2018-04-26T06:28:53.987Z,13.79
2018-04-26T06:34:44.651Z,13.91
2018-04-26T06:40:35.343Z,16.85
2018-04-26T06:46:26.007Z,17.06
2018-04-26T06:52:16.737Z,18.49
2018-04-26T06:58:07.376Z,17.96
2018-04-26T07:03:58.085Z,17.31
2018-04-26T07:09:48.766Z,18.46
2018-04-26T07:15:39.483Z,18.24
2018-04-26T07:21:30.130Z,18.96
2018-04-26T07:27:20.833Z,19.33
2018-04-26T07:33:12.142Z,20.8
2018-04-26T07:39:02.205Z,18.46
2018-04-26T07:44:53.005Z,21.42
2018-04-26T07:50:43.594Z,21.41
2018-04-26T07:56:34.317Z,19.97
2018-04-26T08:02:24.997Z,18.98
2018-04-26T08:08:15.737Z,16.55
2018-04-26T08:14:06.413Z,15.38
2018-04-26T08:19:57.132Z,14.61
2018-04-26T08:25:47.844Z,12.36
2018-04-26T08:31:38.606Z,12.23
2018-04-26T08:37:29.238Z,10.01
2018-04-26T08:43:19.911Z,8.13
2018-04-26T08:49:10.633Z,9.88
2018-04-26T08:55:01.354Z,8.45
2018-04-26T09:00:52.050Z,8.65
2018-04-26T09:06:42.774Z,9.29
2018-04-26T09:12:33.494Z,9.48
2018-04-26T09:18:24.211Z,7.26
2018-04-26T09:24:14.926Z,8.06
2018-04-26T09:30:05.745Z,7.8
2018-04-26T09:35:56.417Z,8.8
2018-04-26T09:41:47.110Z,7.95
2018-04-26T09:47:37.829Z,6.9
2018-04-26T09:53:28.581Z,7.06
2018-04-26T09:59:19.316Z,6.4
2018-04-26T10:05:10.001Z,5.96
2018-04-26T10:11:00.774Z,5.59
2018-04-26T10:16:51.544Z,5.89
2018-04-26T10:22:42.263Z,5.71
2018-04-26T10:28:32.952Z,5.66
2018-04-26T10:34:23.728Z,5.28
2018-04-26T10:40:14.447Z,4.85
2018-04-26T10:46:05.156Z,4.28
2018-04-26T10:51:55.937Z,4.76
2018-04-26T10:57:46.692Z,4.89
2018-04-26T11:03:37.489Z,4.3
2018-04-26T11:09:28.167Z,4.33
2018-04-26T11:15:18.941Z,4.03
2018-04-26T11:21:09.647Z,4.31
2018-04-26T11:27:00.372Z,3.83
2018-04-26T11:32:51.207Z,4.56
2018-04-26T11:38:41.916Z,2.74
2018-04-26T11:44:32.682Z,3.09
2018-04-26T11:50:23.529Z,3.05
2018-04-26T11:56:14.264Z,3.39
2018-04-26T12:02:04.924Z,3.55
2018-04-26T12:07:55.681Z,3.81
2018-04-26T12:13:46.452Z,3.95
2018-04-26T12:19:37.234Z,3.13
2018-04-26T12:25:27.967Z,3.56
2018-04-26T12:31:18.797Z,3.3
2018-04-26T12:37:09.459Z,3.62
2018-04-26T12:43:00.249Z,2.78
2018-04-26T12:48:51.010Z,3.89
2018-04-26T12:54:41.821Z,3.26
2018-04-26T13:00:32.509Z,3.49
2018-04-26T13:06:23.291Z,3.28
2018-04-26T13:12:14.036Z,3.19
2018-04-26T13:18:04.805Z,3.34
2018-04-26T13:23:55.568Z,3.55
2018-04-26T13:29:46.444Z,3.51
2018-04-26T13:35:37.158Z,3.35
2018-04-26T13:41:27.938Z,3.97
2018-04-26T13:47:18.678Z,4.18
2018-04-26T13:53:09.420Z,3.68
2018-04-26T13:59:00.245Z,3.01
2018-04-26T14:04:50.957Z,3.69
2018-04-26T14:10:41.780Z,4.18
2018-04-26T14:16:32.496Z,4.18
2018-04-26T14:22:23.243Z,3.66
2018-04-26T14:28:14.048Z,4.05
2018-04-26T14:34:04.828Z,3.95
2018-04-26T14:39:55.593Z,3.63
2018-04-26T14:45:46.330Z,4.92
2018-04-26T14:51:37.187Z,5.01
2018-04-26T14:57:27.892Z,4.21
2018-04-26T15:03:18.664Z,3.68
2018-04-26T15:09:09.435Z,3.91
2018-04-26T15:15:00.176Z,5.31
2018-04-26T15:20:50.913Z,3.64
2018-04-26T15:26:41.712Z,4.23
2018-04-26T15:32:32.488Z,3.85
2018-04-26T15:38:23.262Z,4.32
2018-04-26T15:44:14.065Z,3.65
2018-04-26T15:50:04.835Z,4.27
2018-04-26T15:55:55.527Z,4.25
2018-04-26T16:01:46.313Z,4.63
2018-04-26T16:07:37.114Z,4.76
2018-04-26T16:13:27.826Z,4.47
2018-04-26T16:19:18.650Z,3.62
2018-04-26T16:25:09.347Z,4.28
2018-04-26T16:31:00.131Z,3.73
2018-04-26T16:36:50.983Z,3.91
2018-04-26T16:42:41.643Z,4.1
2018-04-26T16:48:32.443Z,3.99
2018-04-26T16:54:23.221Z,4.21
2018-04-26T17:00:13.974Z,4.35
2018-04-26T17:06:04.719Z,4.05
2018-04-26T17:11:55.479Z,4.36
2018-04-26T17:17:46.218Z,3.67
2018-04-26T17:23:36.968Z,5.4
2018-04-26T17:29:27.761Z,4.62
2018-04-26T17:35:18.514Z,4.58
2018-04-26T17:41:09.261Z,5.33
2018-04-26T17:47:00.021Z,5.23
2018-04-26T17:52:50.817Z,5.43
2018-04-26T17:58:41.519Z,5.5
2018-04-26T18:04:32.306Z,5.59
2018-04-26T18:10:23.044Z,4.78
2018-04-26T18:16:13.851Z,5.53
2018-04-26T18:22:04.529Z,5.57
2018-04-26T18:27:55.337Z,6.12
2018-04-26T18:33:46.039Z,6.49
2018-04-26T18:39:36.788Z,5.98
2018-04-26T18:45:27.499Z,6.82
2018-04-26T18:51:18.286Z,41.31
2018-04-26T18:57:09.104Z,67.57
2018-04-26T19:02:59.745Z,54.18
2018-04-26T19:08:50.510Z,28.4
2018-04-26T19:14:41.202Z,105.67
2018-04-26T19:20:31.987Z,46.63
2018-04-26T19:26:22.638Z,35.17
2018-04-26T19:32:13.410Z,27.85
2018-04-26T19:38:04.107Z,29.49
2018-04-26T19:43:54.872Z,15.41
2018-04-26T19:49:45.597Z,10.34
2018-04-26T19:55:36.294Z,9.58
2018-04-26T20:01:27.029Z,7.22
2018-04-26T20:07:17.723Z,6.74
2018-04-26T20:13:08.446Z,6.7
2018-04-26T20:18:59.196Z,6.63
2018-04-26T20:24:49.854Z,7.25
2018-04-26T20:30:40.567Z,6.81
2018-04-26T20:36:31.314Z,7.25
2018-04-26T20:42:21.942Z,8.11
2018-04-26T20:48:12.689Z,7.41
2018-04-26T20:54:03.366Z,8.17
2018-04-26T20:59:54.082Z,7.73
2018-04-26T21:05:44.837Z,9.35
2018-04-26T21:11:35.480Z,8.81
2018-04-26T21:17:26.148Z,8.26
2018-04-26T21:23:16.945Z,9.15
2018-04-26T21:29:07.584Z,9
2018-04-26T21:34:58.280Z,8.05
2018-04-26T21:40:48.966Z,7.87
2018-04-26T21:46:39.703Z,8.27
2018-04-26T21:52:30.379Z,8.8
2018-04-26T21:58:21.109Z,7.99
2018-04-26T22:04:11.781Z,8.48
2018-04-26T22:10:02.462Z,7.94
2018-04-26T22:15:53.184Z,8.08
2018-04-26T22:21:43.825Z,8.03
2018-04-26T22:27:34.578Z,8
2018-04-26T22:33:25.235Z,7.45
2018-04-26T22:39:15.941Z,8.13
2018-04-26T22:45:06.633Z,7.33
2018-04-26T22:50:57.350Z,7.31
2018-04-26T22:56:48.016Z,7.32
2018-04-26T23:02:38.767Z,7.07
2018-04-26T23:08:29.388Z,6.97
2018-04-26T23:14:20.127Z,7.33
2018-04-26T23:20:10.777Z,7.38
2018-04-26T23:26:01.492Z,7.95
2018-04-26T23:31:52.164Z,8.26
2018-04-26T23:37:42.849Z,7.14
2018-04-26T23:43:33.549Z,7.63
2018-04-26T23:49:24.219Z,6.11
2018-04-26T23:55:14.906Z,7.1
